METAR Data
IDs: Format: Raw Decoded Include TAF

Data at: 1638 UTC 03 Dec 2021

KSAT 031601Z 20006KT 10SM SCT007 BKN014 OVC100 21/19 A3010 RMK AO2 SHRA DSNT NE AND S T02060189